Time;durP1;ratioP1;P1;durP2;ratioP2;P2;SDS_P1;SDS_P2;PMS_P1;PMS_P2;Temp;Humidity;BMP_temperature;BMP_pressure;BME280_temperature;BME280_humidity;BME280_pressure;Samples;Min_cycle;Max_cycle;Signal;HPM_P1;HPM_P2
2021/03/31 00:03:14;;;;;;;16.10;8.65;;;9.40;99.90;;;;;;12370752;28;20414;-43
2021/03/31 00:09:16;;;;;;;20.08;8.32;;;9.60;99.90;;;;;;12373564;28;20046;-41
2021/03/31 00:15:17;;;;;;;15.38;7.97;;;9.70;99.90;;;;;;12376930;28;20077;-41
2021/03/31 00:21:19;;;;;;;18.17;8.93;;;9.80;99.90;;;;;;12367978;28;20402;-41
2021/03/31 00:27:20;;;;;;;18.58;8.40;;;10.00;99.90;;;;;;12376876;28;20172;-42
2021/03/31 00:33:22;;;;;;;16.30;8.25;;;9.80;99.90;;;;;;12351997;28;20070;-41
2021/03/31 00:39:23;;;;;;;17.40;9.43;;;9.70;99.90;;;;;;12354665;28;20037;-42
2021/03/31 00:45:25;;;;;;;18.10;9.40;;;9.60;99.90;;;;;;12354695;28;20073;-41
2021/03/31 00:51:27;;;;;;;16.52;7.55;;;9.30;99.90;;;;;;12364814;28;20144;-41
2021/03/31 00:57:28;;;;;;;18.00;8.52;;;9.10;99.90;;;;;;12363645;28;20165;-42
2021/03/31 01:03:30;;;;;;;15.60;7.70;;;8.90;99.90;;;;;;12377154;28;20144;-42
2021/03/31 01:09:31;;;;;;;16.92;7.97;;;8.80;99.90;;;;;;12362511;28;20055;-42
2021/03/31 01:15:43;;;;;;;17.50;7.82;;;8.80;99.90;;;;;;12367632;28;20064;-41
2021/03/31 01:22:16;;;;;;;16.17;7.50;;;8.90;99.90;;;;;;12367362;28;20085;-41
2021/03/31 01:28:52;;;;;;;14.85;6.97;;;9.00;99.90;;;;;;12371578;28;20090;-42
2021/03/31 01:34:54;;;;;;;13.10;6.97;;;8.90;99.90;;;;;;12364146;28;22242;-41
2021/03/31 01:41:01;;;;;;;16.33;7.18;;;8.80;99.90;;;;;;12370186;28;20049;-42
2021/03/31 01:47:03;;;;;;;17.80;8.35;;;9.00;99.90;;;;;;12364117;28;20054;-42
2021/03/31 01:53:05;;;;;;;14.95;8.45;;;8.80;99.90;;;;;;12365809;28;20786;-42
2021/03/31 01:59:08;;;;;;;20.88;9.73;;;8.60;99.90;;;;;;12369722;28;20046;-42
2021/03/31 02:05:11;;;;;;;17.17;8.95;;;8.50;99.90;;;;;;12369715;28;20681;-42
2021/03/31 02:11:14;;;;;;;19.25;9.93;;;8.70;99.90;;;;;;12367747;28;20144;-41
2021/03/31 02:17:22;;;;;;;19.58;11.07;;;8.90;99.90;;;;;;12359637;28;20142;-41
2021/03/31 02:23:24;;;;;;;19.67;9.70;;;8.70;99.90;;;;;;12360647;28;20842;-41
2021/03/31 02:29:26;;;;;;;21.13;10.57;;;8.20;99.90;;;;;;12371738;28;20137;-42
2021/03/31 02:35:30;;;;;;;21.95;10.77;;;8.10;99.90;;;;;;12382397;28;20061;-41
2021/03/31 02:41:37;;;;;;;19.02;10.70;;;7.90;99.90;;;;;;12367817;28;20498;-41
2021/03/31 02:47:40;;;;;;;16.35;9.85;;;7.80;99.90;;;;;;12363504;28;20053;-41
2021/03/31 02:53:42;;;;;;;18.67;10.45;;;7.90;99.90;;;;;;12367555;28;20049;-41
2021/03/31 02:59:45;;;;;;;17.75;10.32;;;7.80;99.90;;;;;;12367930;28;20697;-41
2021/03/31 03:05:46;;;;;;;20.40;9.93;;;7.60;99.90;;;;;;12361339;28;20061;-41
2021/03/31 03:11:48;;;;;;;18.35;10.65;;;7.60;99.90;;;;;;12362781;28;20062;-41
2021/03/31 03:17:49;;;;;;;19.20;11.38;;;7.20;99.90;;;;;;12372555;28;20225;-41
2021/03/31 03:23:53;;;;;;;20.38;11.30;;;7.20;99.90;;;;;;12366975;28;20086;-41
2021/03/31 03:29:55;;;;;;;23.73;11.40;;;7.30;99.90;;;;;;12356797;28;20046;-41
2021/03/31 03:35:57;;;;;;;21.27;11.20;;;7.20;99.90;;;;;;12363343;28;20065;-42
2021/03/31 03:41:59;;;;;;;21.27;10.43;;;7.10;99.90;;;;;;12364642;28;20049;-41
2021/03/31 03:48:02;;;;;;;21.63;11.63;;;7.10;99.90;;;;;;12351560;28;579564;-41
2021/03/31 03:54:10;;;;;;;22.52;11.07;;;7.20;99.90;;;;;;12372542;28;20053;-41
2021/03/31 04:00:13;;;;;;;23.35;11.70;;;7.20;99.90;;;;;;12372541;28;20074;-43
2021/03/31 04:06:15;;;;;;;17.73;10.88;;;7.20;99.90;;;;;;12363308;28;20054;-41
2021/03/31 04:12:17;;;;;;;20.48;10.88;;;7.20;99.90;;;;;;12363106;28;20056;-41
2021/03/31 04:18:20;;;;;;;21.63;11.05;;;7.20;99.90;;;;;;12361343;28;20161;-42
2021/03/31 04:24:21;;;;;;;20.38;10.18;;;7.00;99.90;;;;;;12369620;28;20093;-43
2021/03/31 04:30:24;;;;;;;19.02;9.77;;;7.00;99.90;;;;;;12367341;28;20073;-41
2021/03/31 04:36:29;;;;;;;22.75;10.13;;;6.90;99.90;;;;;;12358302;28;20448;-42
2021/03/31 04:42:30;;;;;;;16.65;9.23;;;7.10;99.90;;;;;;12363900;28;20080;-41
2021/03/31 04:48:32;;;;;;;15.60;9.10;;;7.20;99.90;;;;;;12371319;28;20096;-41
2021/03/31 04:54:33;;;;;;;17.65;8.57;;;7.10;99.90;;;;;;12363327;28;20050;-42
2021/03/31 05:00:34;;;;;;;18.00;8.88;;;7.00;99.90;;;;;;12368961;28;20061;-41
2021/03/31 05:06:37;;;;;;;17.65;8.68;;;7.00;99.90;;;;;;12371765;28;20471;-41
2021/03/31 05:12:38;;;;;;;17.63;8.93;;;7.00;99.90;;;;;;12366123;28;20045;-41
2021/03/31 05:18:40;;;;;;;18.35;8.57;;;7.00;99.90;;;;;;12354069;28;20088;-41
2021/03/31 05:24:41;;;;;;;20.38;9.98;;;7.10;99.90;;;;;;12362185;28;20077;-41
2021/03/31 05:30:43;;;;;;;21.42;11.00;;;7.60;99.90;;;;;;12365359;28;20070;-43
2021/03/31 05:36:45;;;;;;;17.50;9.00;;;7.50;99.90;;;;;;12358943;28;20061;-41
2021/03/31 05:42:46;;;;;;;25.85;11.38;;;7.30;99.90;;;;;;12362667;28;20073;-41
2021/03/31 05:48:48;;;;;;;20.45;9.30;;;7.00;99.90;;;;;;12363462;28;20510;-41
2021/03/31 05:54:50;;;;;;;18.10;8.50;;;6.80;99.90;;;;;;12361464;28;20088;-41
2021/03/31 06:00:52;;;;;;;17.58;9.32;;;7.30;99.90;;;;;;12349590;28;20085;-43
2021/03/31 06:06:54;;;;;;;18.83;9.02;;;7.80;99.90;;;;;;12363490;28;20081;-41
2021/03/31 06:13:02;;;;;;;22.77;10.38;;;7.90;99.90;;;;;;12342988;28;20086;-42
2021/03/31 06:19:22;;;;;;;22.08;9.80;;;8.10;99.90;;;;;;12359169;28;20054;-42
2021/03/31 06:25:28;;;;;;;20.52;9.30;;;8.30;99.90;;;;;;12352022;28;20078;-41
2021/03/31 06:31:33;;;;;;;19.42;9.85;;;8.60;99.90;;;;;;12365286;28;20141;-41
2021/03/31 06:37:37;;;;;;;18.70;9.57;;;9.20;99.90;;;;;;12362450;28;20054;-43
2021/03/31 06:43:46;;;;;;;;;;;9.50;99.90;;;;;;12359107;28;20058;-41
2021/03/31 06:49:49;;;;;;;21.27;10.93;;;9.70;99.90;;;;;;12372697;28;19961;-41
2021/03/31 06:56:02;;;;;;;20.98;11.65;;;9.70;99.90;;;;;;12366322;28;20057;-41
2021/03/31 07:02:05;;;;;;;20.23;12.13;;;9.60;99.90;;;;;;12374376;28;20137;-41
2021/03/31 07:08:07;;;;;;;21.77;11.90;;;9.60;99.90;;;;;;12364350;28;20100;-41
2021/03/31 07:14:10;;;;;;;22.25;11.85;;;9.60;99.90;;;;;;12372355;28;20054;-43
2021/03/31 07:20:12;;;;;;;19.05;11.77;;;9.90;99.90;;;;;;12370921;28;20405;-42
2021/03/31 07:26:14;;;;;;;24.08;12.32;;;10.10;99.90;;;;;;12369223;28;20050;-41
2021/03/31 07:32:17;;;;;;;21.17;11.10;;;10.30;99.90;;;;;;12371325;28;20108;-42
2021/03/31 07:38:21;;;;;;;20.35;10.63;;;10.70;99.90;;;;;;12367872;28;20054;-42
2021/03/31 07:44:24;;;;;;;;;;;11.40;99.90;;;;;;12372457;28;20057;-42
2021/03/31 07:50:26;;;;;;;20.40;11.07;;;11.80;99.90;;;;;;12367228;28;19926;-43
2021/03/31 07:56:31;;;;;;;21.70;11.73;;;11.90;99.90;;;;;;12367390;28;20697;-42
2021/03/31 08:02:33;;;;;;;20.23;9.73;;;12.10;99.90;;;;;;12367876;28;20085;-41
2021/03/31 08:08:56;;;;;;;24.67;10.43;;;12.40;99.90;;;;;;12364378;28;20105;-42
2021/03/31 08:14:59;;;;;;;19.60;10.65;;;12.50;99.90;;;;;;12361154;28;20668;-42
2021/03/31 08:21:22;;;;;;;18.75;10.68;;;12.90;99.90;;;;;;12351317;28;20410;-43
2021/03/31 08:27:24;;;;;;;17.05;10.80;;;13.10;99.90;;;;;;12358845;28;20046;-42
2021/03/31 08:33:26;;;;;;;20.48;10.50;;;13.40;99.90;;;;;;12368832;28;20486;-42
2021/03/31 08:39:28;;;;;;;16.77;10.20;;;13.70;99.90;;;;;;12362763;28;20464;-42
2021/03/31 08:45:33;;;;;;;18.60;9.75;;;14.00;99.90;;;;;;12349427;28;20073;-42
2021/03/31 08:51:40;;;;;;;15.32;9.23;;;14.20;99.90;;;;;;12362623;28;20536;-43
2021/03/31 08:57:42;;;;;;;18.33;10.07;;;14.50;99.90;;;;;;12365557;28;20049;-42
2021/03/31 09:03:43;;;;;;;22.45;10.25;;;14.80;99.90;;;;;;12363573;28;20506;-43
2021/03/31 09:09:46;;;;;;;20.02;10.35;;;15.20;99.90;;;;;;12355692;28;20136;-43
2021/03/31 09:15:57;;;;;;;16.30;9.43;;;15.50;99.90;;;;;;12361447;28;20049;-43
2021/03/31 09:22:19;;;;;;;16.15;9.82;;;16.20;99.90;;;;;;12357590;28;20053;-43
2021/03/31 09:28:20;;;;;;;18.45;9.48;;;16.70;99.90;;;;;;12363731;28;20142;-43
2021/03/31 09:34:22;;;;;;;16.92;10.07;;;17.00;99.90;;;;;;12373647;28;20156;-43
2021/03/31 09:40:28;;;;;;;18.98;10.32;;;17.20;99.90;;;;;;12358420;28;20046;-43
2021/03/31 09:46:30;;;;;;;18.45;9.85;;;17.40;99.90;;;;;;12349196;28;20052;-44
2021/03/31 09:52:32;;;;;;;16.40;9.95;;;17.90;99.90;;;;;;12363009;28;20069;-45
2021/03/31 09:58:35;;;;;;;18.35;10.20;;;18.30;99.90;;;;;;12358621;28;20103;-43
2021/03/31 10:04:38;;;;;;;14.50;9.45;;;18.70;99.90;;;;;;12353741;28;20084;-43
2021/03/31 10:10:45;;;;;;;22.37;9.63;;;19.20;99.90;;;;;;12357374;28;20096;-45
2021/03/31 10:16:49;;;;;;;16.80;9.68;;;19.60;99.90;;;;;;12354898;28;20333;-42
2021/03/31 10:22:53;;;;;;;21.23;10.07;;;20.00;94.10;;;;;;12365125;28;20084;-42
2021/03/31 10:29:28;;;;;;;18.05;10.10;;;20.20;95.60;;;;;;12351330;28;20070;-44
2021/03/31 10:35:55;;;;;;;17.90;9.77;;;20.40;91.10;;;;;;12363029;28;20329;-43
2021/03/31 10:48:17;;;;;;;20.08;11.25;;;20.90;92.30;;;;;;12371694;28;20407;-43
2021/03/31 10:54:23;;;;;;;18.10;10.35;;;21.10;89.00;;;;;;12376522;28;20062;-46
2021/03/31 11:00:25;;;;;;;17.95;10.18;;;21.30;90.50;;;;;;12375669;28;20134;-46
2021/03/31 11:06:26;;;;;;;20.08;10.77;;;21.50;90.10;;;;;;12367640;28;20065;-43
2021/03/31 11:12:28;;;;;;;21.00;10.52;;;21.60;84.00;;;;;;12363838;28;20092;-46
2021/03/31 11:30:51;;;;;;;17.70;10.50;;;22.10;80.90;;;;;;12367468;28;20550;-44
2021/03/31 11:36:53;;;;;;;23.35;10.93;;;22.40;85.30;;;;;;12357200;28;20517;-43
2021/03/31 11:42:54;;;;;;;16.30;9.25;;;22.80;89.60;;;;;;12370784;28;20150;-44
2021/03/31 11:48:56;;;;;;;20.23;9.80;;;23.00;81.80;;;;;;12376198;28;20082;-43
2021/03/31 11:54:58;;;;;;;18.98;9.93;;;23.20;81.90;;;;;;12373872;28;20162;-43
2021/03/31 12:00:59;;;;;;;18.05;9.52;;;23.20;78.20;;;;;;12372316;28;20038;-43
2021/03/31 12:07:03;;;;;;;18.92;10.82;;;23.20;78.30;;;;;;12364033;28;20044;-44
2021/03/31 12:13:04;;;;;;;19.33;10.70;;;23.60;73.80;;;;;;12363876;28;20145;-43
2021/03/31 12:19:06;;;;;;;20.33;10.88;;;23.60;75.00;;;;;;12364959;28;20054;-45
2021/03/31 12:25:09;;;;;;;18.23;9.93;;;24.00;78.70;;;;;;12354373;28;20129;-44
2021/03/31 12:31:11;;;;;;;15.50;9.18;;;24.10;77.50;;;;;;12352733;28;20050;-43
2021/03/31 12:37:12;;;;;;;17.13;9.25;;;24.30;75.20;;;;;;12354651;28;20058;-43
2021/03/31 12:43:14;;;;;;;16.27;9.02;;;24.20;67.10;;;;;;12363053;28;20469;-43
2021/03/31 12:49:15;;;;;;;16.13;9.38;;;24.30;71.40;;;;;;12369756;28;20060;-43
2021/03/31 12:55:24;;;;;;;15.25;7.55;;;24.40;63.50;;;;;;12364735;28;20080;-45
2021/03/31 13:01:27;;;;;;;12.93;7.57;;;24.60;71.40;;;;;;12358111;28;20089;-44
2021/03/31 13:07:49;;;;;;;12.32;7.93;;;24.70;66.70;;;;;;12359171;28;20105;-43
2021/03/31 13:33:19;;;;;;;14.13;6.60;;;24.70;64.90;;;;;;12354474;28;20154;-43
2021/03/31 13:39:34;;;;;;;9.85;5.90;;;24.50;68.80;;;;;;12359090;28;20054;-43
2021/03/31 13:45:36;;;;;;;10.75;6.50;;;24.30;64.80;;;;;;12352859;28;20093;-43
2021/03/31 13:51:49;;;;;;;10.90;5.55;;;24.20;64.70;;;;;;12362929;28;20141;-44
2021/03/31 13:58:03;;;;;;;10.63;5.50;;;24.30;64.40;;;;;;12362425;28;20054;-44
2021/03/31 14:04:05;;;;;;;8.90;4.85;;;24.10;64.30;;;;;;12368191;28;20552;-44
2021/03/31 14:10:26;;;;;;;10.20;6.30;;;24.10;64.30;;;;;;12356363;28;20569;-43
2021/03/31 14:17:09;;;;;;;12.75;6.30;;;24.10;58.80;;;;;;12375320;28;21221;-44
2021/03/31 14:23:13;;;;;;;7.63;4.88;;;23.90;64.10;;;;;;12367725;28;20645;-43
2021/03/31 14:29:14;;;;;;;7.60;4.20;;;24.00;60.40;;;;;;12360266;28;20053;-44
2021/03/31 14:35:16;;;;;;;6.53;4.40;;;24.00;60.30;;;;;;12379634;28;20054;-43
2021/03/31 14:41:18;;;;;;;9.10;4.93;;;24.10;64.00;;;;;;12372351;28;20092;-44
2021/03/31 14:47:20;;;;;;;8.10;4.93;;;24.20;62.90;;;;;;12375795;28;20054;-45
2021/03/31 15:00:04;;;;;;;9.27;4.70;;;24.10;64.80;;;;;;12365056;28;20623;-44
2021/03/31 15:06:06;;;;;;;10.85;5.32;;;24.40;65.80;;;;;;12371139;28;20053;-43
2021/03/31 15:12:08;;;;;;;8.55;4.85;;;24.50;63.80;;;;;;12365898;28;20057;-44
2021/03/31 15:18:29;;;;;;;10.52;5.10;;;24.70;67.60;;;;;;12366543;28;20050;-45
2021/03/31 15:24:52;;;;;;;9.35;5.55;;;24.90;66.20;;;;;;12357605;28;20046;-43
2021/03/31 15:30:54;;;;;;;11.48;5.35;;;24.90;67.70;;;;;;12366873;28;20051;-43
2021/03/31 15:37:15;;;;;;;9.95;4.80;;;25.00;62.70;;;;;;12368209;28;20045;-43
2021/03/31 15:43:21;;;;;;;10.60;5.60;;;24.70;63.20;;;;;;12374225;28;20256;-44
2021/03/31 15:49:28;;;;;;;11.52;5.72;;;24.40;61.30;;;;;;12369129;28;20084;-44
2021/03/31 15:55:35;;;;;;;8.90;5.60;;;24.70;62.00;;;;;;12358431;28;20050;-44
2021/03/31 16:01:41;;;;;;;8.95;5.50;;;24.50;63.70;;;;;;12367981;28;20057;-43
2021/03/31 16:07:47;;;;;;;10.68;5.57;;;24.40;60.20;;;;;;12370590;28;20097;-42
2021/03/31 16:13:53;;;;;;;9.95;5.43;;;24.20;60.60;;;;;;12359153;28;20045;-43
2021/03/31 16:19:55;;;;;;;9.45;6.25;;;24.10;60.30;;;;;;12356957;28;20073;-43
2021/03/31 16:26:02;;;;;;;11.50;6.18;;;24.20;66.00;;;;;;12365731;28;20510;-45
2021/03/31 16:32:08;;;;;;;12.25;6.38;;;24.30;62.50;;;;;;12364562;28;20046;-42
2021/03/31 16:38:15;;;;;;;8.73;6.03;;;24.40;66.40;;;;;;12352371;28;20146;-43
2021/03/31 16:44:21;;;;;;;12.80;7.45;;;24.30;66.30;;;;;;12376545;28;20141;-43
2021/03/31 16:50:27;;;;;;;9.02;6.68;;;24.40;66.10;;;;;;12362551;28;20054;-43
2021/03/31 16:56:35;;;;;;;11.48;7.57;;;24.20;68.50;;;;;;12380418;28;20066;-44
2021/03/31 17:02:41;;;;;;;14.15;7.45;;;24.10;66.70;;;;;;12357383;28;20042;-44
2021/03/31 17:08:48;;;;;;;10.50;6.47;;;23.90;64.20;;;;;;12364816;28;20133;-44
2021/03/31 17:14:54;;;;;;;15.48;7.63;;;23.80;76.90;;;;;;12357286;28;20578;-43
2021/03/31 17:21:01;;;;;;;14.30;7.95;;;23.50;79.10;;;;;;12355145;28;20052;-43
2021/03/31 17:27:07;;;;;;;12.65;8.18;;;23.00;80.40;;;;;;12352995;28;20054;-42
2021/03/31 17:33:14;;;;;;;14.23;8.27;;;22.20;84.00;;;;;;12364316;28;20470;-42
2021/03/31 17:39:20;;;;;;;11.70;7.32;;;21.30;87.00;;;;;;12366677;28;20505;-43
2021/03/31 17:45:26;;;;;;;11.32;6.90;;;20.70;91.00;;;;;;12364971;28;20134;-42
2021/03/31 17:51:38;;;;;;;12.95;7.40;;;;;;;;;;12357838;28;20080;-42
2021/03/31 17:57:44;;;;;;;15.60;8.10;;;19.00;88.50;;;;;;12356992;28;20139;-43
2021/03/31 18:03:51;;;;;;;13.25;7.85;;;18.30;91.90;;;;;;12351956;28;20153;-42
2021/03/31 18:10:00;;;;;;;13.82;8.20;;;17.60;94.80;;;;;;12353742;28;20153;-42
2021/03/31 18:16:07;;;;;;;16.08;8.23;;;17.10;96.80;;;;;;12361058;28;20047;-43
2021/03/31 18:22:14;;;;;;;14.85;8.55;;;16.70;99.90;;;;;;12356529;28;21569;-43
2021/03/31 18:28:20;;;;;;;16.83;8.77;;;16.70;99.90;;;;;;12345840;28;20583;-44
2021/03/31 18:34:26;;;;;;;14.90;9.13;;;16.60;99.90;;;;;;12355655;28;20060;-42
2021/03/31 18:46:39;;;;;;;14.77;9.60;;;16.10;99.90;;;;;;12346421;28;20050;-42
2021/03/31 18:52:46;;;;;;;12.50;9.07;;;16.00;99.90;;;;;;12365804;28;20506;-42
2021/03/31 18:58:52;;;;;;;18.05;10.43;;;15.90;99.90;;;;;;12361164;28;20093;-43
2021/03/31 19:04:58;;;;;;;19.42;11.10;;;15.80;99.90;;;;;;12366260;28;20418;-42
2021/03/31 19:11:08;;;;;;;16.35;10.27;;;15.70;99.90;;;;;;12361353;28;20046;-42
2021/03/31 19:17:14;;;;;;;20.67;10.70;;;15.70;99.90;;;;;;12363959;28;20062;-42
2021/03/31 19:23:21;;;;;;;18.50;11.30;;;15.50;99.90;;;;;;12362222;28;20737;-43
2021/03/31 19:29:27;;;;;;;20.27;11.23;;;15.50;99.90;;;;;;12354831;28;20049;-42
2021/03/31 19:35:34;;;;;;;22.08;11.77;;;15.30;99.90;;;;;;12368666;28;20494;-41
2021/03/31 19:41:41;;;;;;;20.15;11.60;;;15.10;99.90;;;;;;12364722;28;20559;-42
2021/03/31 19:47:48;;;;;;;15.90;11.15;;;15.00;99.90;;;;;;12355963;28;20124;-43
2021/03/31 19:53:55;;;;;;;20.58;10.90;;;14.90;99.90;;;;;;12363638;28;20672;-42
2021/03/31 20:00:04;;;;;;;20.73;11.38;;;14.90;99.90;;;;;;12370308;28;20052;-42
2021/03/31 20:06:10;;;;;;;20.88;12.88;;;14.70;99.90;;;;;;12367851;28;20046;-42
2021/03/31 20:12:17;;;;;;;20.88;12.75;;;14.60;99.90;;;;;;12362081;28;20060;-42
2021/03/31 20:18:23;;;;;;;24.60;13.10;;;14.50;99.90;;;;;;12348276;28;20537;-42
2021/03/31 20:24:30;;;;;;;17.98;12.00;;;14.50;99.90;;;;;;12355411;28;20044;-42
2021/03/31 20:30:37;;;;;;;24.23;12.10;;;14.40;99.90;;;;;;12367137;28;20486;-42
2021/03/31 20:36:38;;;;;;;24.85;13.23;;;14.30;99.90;;;;;;12357542;28;20058;-42
2021/03/31 20:42:44;;;;;;;23.17;13.80;;;14.30;99.90;;;;;;12374124;28;20178;-42
2021/03/31 20:48:50;;;;;;;22.52;13.50;;;14.20;99.90;;;;;;12354610;28;20835;-42
2021/03/31 20:54:57;;;;;;;23.88;13.75;;;14.20;99.90;;;;;;12365000;28;20050;-42
2021/03/31 21:01:03;;;;;;;20.52;12.68;;;14.20;99.90;;;;;;12357857;28;20049;-42
2021/03/31 21:07:09;;;;;;;26.17;13.38;;;14.10;99.90;;;;;;12347081;28;20140;-42
2021/03/31 21:13:16;;;;;;;22.65;12.52;;;13.90;99.90;;;;;;12355980;28;20050;-42
2021/03/31 21:19:23;;;;;;;27.38;13.55;;;13.80;99.90;;;;;;12351340;28;20050;-41
2021/03/31 21:25:29;;;;;;;24.83;13.82;;;13.80;99.90;;;;;;12358727;28;20054;-42
2021/03/31 21:31:35;;;;;;;21.75;13.10;;;13.90;99.90;;;;;;12353247;28;20046;-41
2021/03/31 21:37:42;;;;;;;23.58;14.02;;;13.90;99.90;;;;;;12356908;28;20084;-42
2021/03/31 21:43:48;;;;;;;22.73;13.63;;;14.00;99.90;;;;;;12363881;28;20053;-44
2021/03/31 21:49:54;;;;;;;23.02;13.02;;;13.90;99.90;;;;;;12351712;28;20062;-42
2021/03/31 21:55:56;;;;;;;24.67;14.00;;;13.70;99.90;;;;;;12365346;28;20050;-43
2021/03/31 22:01:57;;;;;;;24.20;14.52;;;13.50;99.90;;;;;;12362652;28;20054;-41
2021/03/31 22:07:59;;;;;;;29.75;14.77;;;13.40;99.90;;;;;;12360153;28;20046;-42
2021/03/31 22:14:01;;;;;;;25.60;14.30;;;13.30;99.90;;;;;;12358176;28;20093;-42
2021/03/31 22:20:21;;;;;;;27.50;14.65;;;13.10;99.90;;;;;;12362994;28;20080;-43
2021/03/31 22:26:26;;;;;;;25.10;14.60;;;13.20;99.90;;;;;;12360085;28;20090;-42
2021/03/31 22:32:27;;;;;;;22.55;15.00;;;13.40;99.90;;;;;;12366274;28;20457;-43
2021/03/31 22:38:29;;;;;;;27.60;14.90;;;13.40;99.90;;;;;;12365031;28;20060;-42
2021/03/31 22:44:31;;;;;;;24.95;14.75;;;13.40;99.90;;;;;;12358321;28;20053;-42
2021/03/31 22:50:41;;;;;;;28.15;15.73;;;13.40;99.90;;;;;;12372651;28;20054;-42
2021/03/31 22:56:42;;;;;;;25.95;14.80;;;13.40;99.90;;;;;;12360710;28;20065;-42
2021/03/31 23:02:45;;;;;;;23.55;14.85;;;13.40;99.90;;;;;;12363784;28;20049;-41
2021/03/31 23:08:47;;;;;;;25.80;15.82;;;13.40;99.90;;;;;;12354303;28;20064;-43
2021/03/31 23:14:48;;;;;;;24.85;15.68;;;13.40;99.90;;;;;;12352777;28;20050;-43
2021/03/31 23:20:52;;;;;;;25.60;15.13;;;13.30;99.90;;;;;;12363082;28;20060;-42
2021/03/31 23:26:53;;;;;;;30.33;15.90;;;13.30;99.90;;;;;;12371020;28;20073;-45
2021/03/31 23:32:56;;;;;;;24.25;14.60;;;13.40;99.90;;;;;;12369297;28;20076;-43
2021/03/31 23:38:57;;;;;;;24.80;15.73;;;13.30;99.90;;;;;;12357437;28;20054;-42
2021/03/31 23:44:59;;;;;;;30.40;16.23;;;13.10;99.90;;;;;;12366141;28;20411;-43
2021/03/31 23:51:00;;;;;;;30.02;16.10;;;12.60;99.90;;;;;;12363048;28;20501;-42
2021/03/31 23:57:02;;;;;;;24.60;15.48;;;12.40;99.90;;;;;;12366809;28;20053;-43
